Time;durP1;ratioP1;P1;durP2;ratioP2;P2;SDS_P1;SDS_P2;PMS_P1;PMS_P2;Temp;Humidity;BMP_temperature;BMP_pressure;BME280_temperature;BME280_humidity;BME280_pressure;Samples;Min_cycle;Max_cycle;Signal;HPM_P1;HPM_P2
2022/02/17 00:00:49;;;;;;;5.72;1.60;;;31.20;92.10;;;;;;4974815;28;20105;-72
2022/02/17 00:03:16;;;;;;;2.67;1.17;;;31.40;92.00;;;;;;4981887;28;20038;-77
2022/02/17 00:05:43;;;;;;;5.05;1.30;;;31.60;90.90;;;;;;4983496;28;20454;-72
2022/02/17 00:08:11;;;;;;;2.80;1.10;;;31.60;90.90;;;;;;4986212;28;20050;-74
2022/02/17 00:10:39;;;;;;;4.30;1.70;;;32.00;90.80;;;;;;4984739;28;20096;-77
2022/02/17 00:13:06;;;;;;;5.93;1.83;;;32.00;89.70;;;;;;4987218;28;20575;-76
2022/02/17 00:15:34;;;;;;;3.38;1.30;;;31.90;89.90;;;;;;4980892;28;20030;-73
2022/02/17 00:18:10;;;;;;;3.33;0.93;;;31.80;88.30;;;;;;4978346;28;20041;-72
2022/02/17 00:20:38;;;;;;;6.45;1.20;;;31.80;89.10;;;;;;4984119;28;20034;-72
2022/02/17 00:23:05;;;;;;;2.25;1.00;;;32.00;88.60;;;;;;4979496;28;20496;-74
2022/02/17 00:25:33;;;;;;;2.42;1.00;;;32.10;89.50;;;;;;4975996;28;20069;-72
2022/02/17 00:28:00;;;;;;;1.73;0.90;;;32.70;89.20;;;;;;4977759;28;20490;-71
2022/02/17 00:30:29;;;;;;;6.35;1.77;;;32.80;86.90;;;;;;4983674;28;20386;-75
2022/02/17 00:32:56;;;;;;;4.03;1.40;;;32.90;89.10;;;;;;4980851;28;20038;-74
2022/02/17 00:35:24;;;;;;;3.13;1.30;;;33.20;88.90;;;;;;4977824;28;20478;-73
2022/02/17 00:37:53;;;;;;;4.65;1.65;;;33.20;87.50;;;;;;4977460;28;20069;-75
2022/02/17 00:40:20;;;;;;;3.60;1.30;;;32.40;86.10;;;;;;4979110;28;20350;-72
2022/02/17 00:42:47;;;;;;;5.55;1.55;;;31.70;89.80;;;;;;4977909;28;20042;-75
2022/02/17 00:45:15;;;;;;;6.53;2.10;;;31.50;90.90;;;;;;4979581;28;20065;-72
2022/02/17 00:47:42;;;;;;;7.03;1.60;;;31.90;90.60;;;;;;4977411;28;20034;-73
2022/02/17 00:50:10;;;;;;;10.40;1.73;;;32.40;89.70;;;;;;4981529;28;20030;-70
2022/02/17 00:52:38;;;;;;;3.60;1.10;;;32.60;90.10;;;;;;4977191;28;20037;-72
2022/02/17 00:55:06;;;;;;;7.32;1.55;;;32.70;89.00;;;;;;4984928;28;20101;-73
2022/02/17 00:57:33;;;;;;;3.58;0.95;;;32.70;88.10;;;;;;4976240;28;20027;-75
2022/02/17 01:00:01;;;;;;;3.17;1.27;;;32.60;88.50;;;;;;4978015;28;20053;-74
2022/02/17 01:02:29;;;;;;;5.57;1.90;;;32.80;87.50;;;;;;4979680;28;20041;-71
2022/02/17 01:04:56;;;;;;;5.88;1.20;;;32.90;87.10;;;;;;4991094;28;20034;-72
2022/02/17 01:07:23;;;;;;;5.95;1.85;;;32.90;87.10;;;;;;4984465;28;20034;-74
2022/02/17 01:09:51;;;;;;;2.60;1.38;;;33.20;87.40;;;;;;4972608;28;20019;-75
2022/02/17 01:12:18;;;;;;;1.80;1.05;;;33.70;86.90;;;;;;4977593;28;20034;-71
2022/02/17 01:14:45;;;;;;;3.72;1.40;;;33.90;86.10;;;;;;4988170;28;20100;-75
2022/02/17 01:17:13;;;;;;;7.70;2.58;;;34.10;85.80;;;;;;4986404;28;20053;-70
2022/02/17 01:19:40;;;;;;;2.88;1.30;;;34.00;85.30;;;;;;4982035;28;20428;-72
2022/02/17 01:22:08;;;;;;;2.25;1.17;;;33.80;86.60;;;;;;4990999;28;20034;-75
2022/02/17 01:24:35;;;;;;;3.45;1.23;;;34.00;86.80;;;;;;4985463;28;20018;-73
2022/02/17 01:27:02;;;;;;;2.70;0.88;;;34.30;85.90;;;;;;4980623;28;20058;-72
2022/02/17 01:29:30;;;;;;;7.53;1.40;;;34.30;82.60;;;;;;4986573;28;20030;-73
2022/02/17 01:31:57;;;;;;;6.95;1.40;;;34.70;84.40;;;;;;4989489;28;20486;-73
2022/02/17 01:34:24;;;;;;;6.28;0.90;;;34.90;84.40;;;;;;4969220;28;20034;-72
2022/02/17 01:36:52;;;;;;;4.63;0.90;;;35.20;82.00;;;;;;4985733;28;20030;-73
2022/02/17 01:39:19;;;;;;;2.80;0.88;;;34.90;82.60;;;;;;4972664;28;20096;-72
2022/02/17 01:41:47;;;;;;;3.75;1.33;;;34.70;82.60;;;;;;4985464;28;20023;-73
2022/02/17 01:44:14;;;;;;;4.35;0.82;;;34.50;82.70;;;;;;4985135;28;20030;-71
2022/02/17 01:46:43;;;;;;;6.90;1.30;;;34.70;81.90;;;;;;4989309;28;20018;-72
2022/02/17 01:49:12;;;;;;;3.15;0.98;;;34.80;83.50;;;;;;4982332;28;20038;-73
2022/02/17 01:51:39;;;;;;;3.35;0.65;;;35.00;81.60;;;;;;4978977;28;20039;-74
2022/02/17 01:54:08;;;;;;;4.13;1.05;;;35.00;80.60;;;;;;4985161;28;20047;-72
2022/02/17 01:56:38;;;;;;;3.50;0.95;;;35.20;81.70;;;;;;4986984;28;20045;-73
2022/02/17 01:59:07;;;;;;;2.08;0.73;;;35.90;81.40;;;;;;4982293;28;20485;-72
2022/02/17 02:01:35;;;;;;;3.80;0.90;;;36.20;79.00;;;;;;4986530;28;20157;-73
2022/02/17 02:04:04;;;;;;;3.95;1.02;;;36.30;78.60;;;;;;4983807;28;20115;-73
2022/02/17 02:06:32;;;;;;;3.63;1.55;;;35.90;79.50;;;;;;4981410;28;20033;-72
2022/02/17 02:09:00;;;;;;;4.90;1.02;;;35.90;80.70;;;;;;4982986;28;20033;-73
2022/02/17 02:11:28;;;;;;;2.38;0.88;;;36.00;80.70;;;;;;4983214;28;20109;-72
2022/02/17 02:13:55;;;;;;;4.38;1.13;;;36.20;80.00;;;;;;4985227;28;20050;-73
2022/02/17 02:16:34;;;;;;;3.65;1.05;;;36.20;79.30;;;;;;4979073;28;20077;-72
2022/02/17 02:19:01;;;;;;;4.13;1.00;;;36.00;79.90;;;;;;4984425;28;20582;-74
2022/02/17 02:21:28;;;;;;;4.47;1.00;;;36.30;80.60;;;;;;4987188;28;20054;-75
2022/02/17 02:23:55;;;;;;;1.75;0.70;;;36.60;80.90;;;;;;4978224;28;20030;-72
2022/02/17 02:26:23;;;;;;;3.97;0.93;;;36.80;78.20;;;;;;4986942;28;20109;-75
2022/02/17 02:28:51;;;;;;;3.58;1.30;;;36.70;77.80;;;;;;4989784;28;20450;-73
2022/02/17 02:31:18;;;;;;;2.13;0.82;;;36.30;79.40;;;;;;4989652;28;20165;-73
2022/02/17 02:33:46;;;;;;;3.75;1.40;;;36.40;78.40;;;;;;4991396;28;20076;-71
2022/02/17 02:36:13;;;;;;;2.83;1.33;;;36.30;78.10;;;;;;4982594;28;20042;-72
2022/02/17 02:38:41;;;;;;;2.78;0.90;;;36.70;78.30;;;;;;4971288;28;20031;-72
2022/02/17 02:41:08;;;;;;;4.00;1.00;;;37.30;76.30;;;;;;4990647;28;20023;-73
2022/02/17 02:43:36;;;;;;;2.47;0.90;;;37.60;75.70;;;;;;4985275;28;20026;-72
2022/02/17 02:46:13;;;;;;;5.28;1.25;;;37.30;76.30;;;;;;4992820;28;20113;-73
2022/02/17 02:48:49;;;;;;;3.78;0.70;;;37.40;77.00;;;;;;4982750;28;20379;-73
2022/02/17 02:51:16;;;;;;;3.00;0.90;;;37.40;75.50;;;;;;4983637;28;20049;-73
2022/02/17 02:53:43;;;;;;;1.88;0.80;;;37.20;75.30;;;;;;4990275;28;20115;-73
2022/02/17 02:56:11;;;;;;;3.17;0.80;;;36.90;75.80;;;;;;4990651;28;20037;-72
2022/02/17 02:58:38;;;;;;;8.95;1.45;;;36.60;76.00;;;;;;4988378;28;20042;-74
2022/02/17 03:01:06;;;;;;;3.53;0.80;;;36.40;74.80;;;;;;4983061;28;20041;-73
2022/02/17 03:03:33;;;;;;;6.97;1.73;;;36.40;74.90;;;;;;4984319;28;20465;-72
2022/02/17 03:06:00;;;;;;;4.00;1.40;;;36.40;74.70;;;;;;4991591;28;20034;-72
2022/02/17 03:08:28;;;;;;;4.45;0.65;;;36.50;74.20;;;;;;4985667;28;20042;-73
2022/02/17 03:10:55;;;;;;;4.10;0.93;;;37.20;75.30;;;;;;4978314;28;20770;-73
2022/02/17 03:13:22;;;;;;;1.88;0.57;;;37.60;73.60;;;;;;4988569;28;20108;-72
2022/02/17 03:15:49;;;;;;;5.55;1.33;;;38.10;73.40;;;;;;4992399;28;20057;-73
2022/02/17 03:18:17;;;;;;;4.47;0.80;;;38.30;72.10;;;;;;4951477;28;20441;-70
2022/02/17 03:20:44;;;;;;;3.58;0.73;;;38.30;71.50;;;;;;4998459;28;20529;-74
2022/02/17 03:23:11;;;;;;;7.70;1.20;;;38.40;72.20;;;;;;4981544;28;20030;-74
2022/02/17 03:25:39;;;;;;;4.18;0.80;;;38.70;75.20;;;;;;4985076;28;20042;-73
2022/02/17 03:28:06;;;;;;;3.40;0.77;;;38.90;72.40;;;;;;4987215;28;20034;-73
2022/02/17 03:30:35;;;;;;;3.08;0.88;;;38.90;70.70;;;;;;4988617;28;20128;-73
2022/02/17 03:33:03;;;;;;;1.75;0.77;;;38.70;70.80;;;;;;4985807;28;20034;-72
2022/02/17 03:35:30;;;;;;;4.32;0.50;;;38.70;71.20;;;;;;4988659;28;20115;-74
2022/02/17 03:37:58;;;;;;;3.17;1.17;;;38.90;73.20;;;;;;4982147;28;20034;-72
2022/02/17 03:40:25;;;;;;;2.45;0.88;;;38.80;71.30;;;;;;4991984;28;20496;-73
2022/02/17 03:42:53;;;;;;;6.13;0.55;;;38.70;68.90;;;;;;4988178;28;20030;-72
2022/02/17 03:45:40;;;;;;;2.58;0.85;;;38.60;69.50;;;;;;4987283;28;20019;-73
2022/02/17 03:48:08;;;;;;;3.33;0.60;;;38.60;69.20;;;;;;4986670;28;20065;-73
2022/02/17 03:50:35;;;;;;;2.85;0.55;;;38.30;69.40;;;;;;4987746;28;20383;-74
2022/02/17 03:53:02;;;;;;;2.42;0.57;;;38.10;68.60;;;;;;4989053;28;20107;-74
2022/02/17 03:55:30;;;;;;;2.55;0.50;;;37.90;68.60;;;;;;4989802;28;20096;-73
2022/02/17 03:57:57;;;;;;;3.03;0.93;;;37.90;67.90;;;;;;4988639;28;20433;-74
2022/02/17 04:00:25;;;;;;;2.72;0.50;;;37.90;68.30;;;;;;4971362;28;20492;-74
2022/02/17 04:02:52;;;;;;;3.70;0.85;;;38.40;71.20;;;;;;4984314;28;20026;-75
2022/02/17 04:05:20;;;;;;;2.20;0.43;;;38.90;72.30;;;;;;4989145;28;20316;-74
2022/02/17 04:07:48;;;;;;;2.35;0.70;;;39.30;68.70;;;;;;4987571;28;20132;-75
2022/02/17 04:10:15;;;;;;;2.70;0.90;;;39.60;68.60;;;;;;4976568;28;20031;-74
2022/02/17 04:12:42;;;;;;;3.83;0.57;;;39.60;66.70;;;;;;4986560;28;20031;-72
2022/02/17 04:15:11;;;;;;;1.83;0.60;;;39.70;69.40;;;;;;4982262;28;20039;-74
2022/02/17 04:17:38;;;;;;;2.63;0.82;;;39.80;68.90;;;;;;4985820;28;20035;-75
2022/02/17 04:20:06;;;;;;;6.10;1.80;;;39.90;67.50;;;;;;4989465;28;20432;-73
2022/02/17 04:22:33;;;;;;;4.57;1.00;;;39.80;66.10;;;;;;4991244;28;20037;-74
2022/02/17 04:25:01;;;;;;;3.90;0.85;;;39.70;64.50;;;;;;4988309;28;20074;-74
2022/02/17 04:27:28;;;;;;;2.05;0.50;;;39.80;66.00;;;;;;4992399;28;20294;-73
2022/02/17 04:29:55;;;;;;;1.40;0.40;;;39.60;66.00;;;;;;4981699;28;20136;-74
2022/02/17 04:32:23;;;;;;;1.77;0.47;;;39.70;66.50;;;;;;4975900;28;20034;-74
2022/02/17 04:34:50;;;;;;;2.35;0.52;;;39.70;65.40;;;;;;4980619;28;20038;-75
2022/02/17 04:37:17;;;;;;;3.78;0.80;;;39.30;66.10;;;;;;4979049;28;20022;-74
2022/02/17 04:42:37;;;;;;;2.70;0.93;;;38.70;66.80;;;;;;4987826;28;20124;-74
2022/02/17 04:45:07;;;;;;;1.10;0.75;;;38.30;64.70;;;;;;4998996;28;20454;-73
2022/02/17 04:47:35;;;;;;;1.58;0.50;;;38.30;66.70;;;;;;4978329;28;21182;-76
2022/02/17 04:50:02;;;;;;;4.78;1.13;;;38.60;65.20;;;;;;4987131;28;20425;-75
2022/02/17 04:52:29;;;;;;;1.23;0.60;;;38.90;65.70;;;;;;4988944;28;20361;-75
2022/02/17 04:54:57;;;;;;;6.57;0.65;;;39.10;64.40;;;;;;4985484;28;20054;-74
2022/02/17 04:57:24;;;;;;;3.60;0.60;;;39.40;64.30;;;;;;4986122;28;20458;-74
2022/02/17 04:59:52;;;;;;;2.53;0.50;;;39.50;65.90;;;;;;4988806;28;20077;-74
2022/02/17 05:02:19;;;;;;;2.88;0.85;;;39.60;66.40;;;;;;4987615;28;20030;-74
2022/02/17 05:04:46;;;;;;;2.53;0.30;;;39.70;66.60;;;;;;4990577;28;20034;-74
2022/02/17 05:07:13;;;;;;;4.35;0.68;;;39.70;65.10;;;;;;4990200;28;20029;-74
2022/02/17 05:09:41;;;;;;;1.38;0.22;;;39.10;64.20;;;;;;4986093;28;20120;-76
2022/02/17 05:12:08;;;;;;;3.85;0.50;;;38.40;64.70;;;;;;4988585;28;20031;-75
2022/02/17 05:14:36;;;;;;;1.63;0.50;;;37.90;64.70;;;;;;4985966;28;20030;-75
2022/02/17 05:17:03;;;;;;;1.27;0.32;;;37.10;66.00;;;;;;4982166;28;20454;-73
2022/02/17 05:19:30;;;;;;;3.10;1.02;;;36.70;66.40;;;;;;4985657;28;20032;-73
2022/02/17 05:21:58;;;;;;;0.40;0.40;;;36.40;67.10;;;;;;4981864;28;20030;-74
2022/02/17 05:24:25;;;;;;;4.43;0.50;;;36.20;66.50;;;;;;4989639;28;20022;-74
2022/02/17 05:26:54;;;;;;;2.85;0.70;;;36.10;66.20;;;;;;4984715;28;20397;-74
2022/02/17 05:36:06;;;;;;;3.30;0.68;;;35.70;66.20;;;;;;4990117;28;20065;-74
2022/02/17 05:38:33;;;;;;;2.95;0.52;;;35.60;67.30;;;;;;4985523;28;20033;-73
2022/02/17 05:41:00;;;;;;;4.20;0.50;;;35.60;66.70;;;;;;4986328;28;20034;-73
2022/02/17 05:43:28;;;;;;;2.55;0.77;;;35.30;67.50;;;;;;4977790;28;20038;-74
2022/02/17 05:45:55;;;;;;;1.35;0.68;;;35.20;68.40;;;;;;4988380;28;20110;-74
2022/02/17 05:48:22;;;;;;;2.65;1.00;;;35.00;71.10;;;;;;4986243;28;20385;-74
2022/02/17 05:50:50;;;;;;;3.45;0.75;;;34.90;70.30;;;;;;4986350;28;20457;-75
2022/02/17 05:53:17;;;;;;;3.42;0.60;;;34.70;70.60;;;;;;4993503;28;20038;-75
2022/02/17 05:55:44;;;;;;;3.65;0.50;;;34.60;72.00;;;;;;4973628;28;20492;-75
2022/02/17 05:58:12;;;;;;;5.53;0.70;;;34.30;72.00;;;;;;4981612;28;20030;-77
2022/02/17 06:00:40;;;;;;;6.80;0.75;;;34.10;71.30;;;;;;4987717;28;20126;-74
2022/02/17 06:03:07;;;;;;;4.82;1.10;;;34.00;71.50;;;;;;4983355;28;20104;-74
2022/02/17 06:05:35;;;;;;;6.43;1.08;;;33.90;72.10;;;;;;4985336;28;20126;-75
2022/02/17 06:08:02;;;;;;;1.73;0.55;;;33.80;72.60;;;;;;4984615;28;20127;-76
2022/02/17 06:10:29;;;;;;;2.65;0.70;;;33.60;73.30;;;;;;4991026;28;20385;-74
2022/02/17 06:12:57;;;;;;;1.65;0.95;;;33.30;76.00;;;;;;4981293;28;20034;-75
2022/02/17 06:15:24;;;;;;;5.47;1.35;;;33.10;75.80;;;;;;4990164;28;20430;-76
2022/02/17 06:17:51;;;;;;;3.53;0.52;;;32.80;76.50;;;;;;4990011;28;20026;-75
2022/02/17 06:20:19;;;;;;;1.23;0.55;;;32.60;77.10;;;;;;4984610;28;20026;-75
2022/02/17 06:22:52;;;;;;;4.85;1.38;;;32.50;76.70;;;;;;4986069;28;20123;-76
2022/02/17 06:25:20;;;;;;;7.85;1.52;;;32.30;84.10;;;;;;4984161;28;20394;-75
2022/02/17 06:27:48;;;;;;;10.32;1.20;;;31.70;88.60;;;;;;4987937;28;20413;-75
2022/02/17 06:30:17;;;;;;;9.07;1.60;;;30.60;90.60;;;;;;4984022;28;20023;-74
2022/02/17 06:32:47;;;;;;;3.13;0.65;;;29.00;92.30;;;;;;4982447;28;20033;-72
2022/02/17 06:35:16;;;;;;;6.93;0.88;;;27.40;93.70;;;;;;4985830;28;20030;-74
2022/02/17 06:37:44;;;;;;;3.15;0.70;;;26.20;95.20;;;;;;4987903;28;20060;-74
2022/02/17 06:40:12;;;;;;;3.08;0.50;;;25.30;96.60;;;;;;4990512;28;20023;-73
2022/02/17 06:42:39;;;;;;;6.93;0.30;;;24.70;96.20;;;;;;4994811;28;20061;-74
2022/02/17 06:45:07;;;;;;;2.58;0.70;;;24.50;92.10;;;;;;4993522;28;20029;-75
2022/02/17 06:47:40;;;;;;;2.45;0.50;;;24.30;94.80;;;;;;4988127;28;20034;-74
2022/02/17 06:50:09;;;;;;;1.88;0.90;;;23.20;96.40;;;;;;4988244;28;20363;-74
2022/02/17 06:52:37;;;;;;;2.45;1.25;;;22.70;97.90;;;;;;4986672;28;20466;-73
2022/02/17 06:55:05;;;;;;;6.55;1.17;;;22.50;99.90;;;;;;4988666;28;20034;-74
2022/02/17 06:57:32;;;;;;;3.25;0.80;;;22.50;99.90;;;;;;4983083;28;20113;-74
2022/02/17 07:00:03;;;;;;;3.97;1.33;;;22.50;99.90;;;;;;4988737;28;20078;-73
2022/02/17 07:02:33;;;;;;;7.55;1.35;;;22.50;99.90;;;;;;4986607;28;20226;-72
2022/02/17 07:05:02;;;;;;;6.00;2.13;;;22.30;99.90;;;;;;4983438;28;20405;-73
2022/02/17 07:07:30;;;;;;;5.80;1.38;;;22.20;99.90;;;;;;4987848;28;20031;-74
2022/02/17 07:09:58;;;;;;;3.88;1.10;;;22.40;99.90;;;;;;4985752;28;20033;-73
2022/02/17 07:12:26;;;;;;;4.05;0.90;;;22.30;99.90;;;;;;4989462;28;20080;-72
2022/02/17 07:14:56;;;;;;;7.13;1.60;;;22.50;99.90;;;;;;4982723;28;20070;-72
2022/02/17 07:17:24;;;;;;;10.43;1.58;;;22.90;99.90;;;;;;4985543;28;20030;-72
2022/02/17 07:19:52;;;;;;;4.63;0.90;;;23.40;99.90;;;;;;4983184;28;20034;-73
2022/02/17 07:22:19;;;;;;;3.67;0.98;;;23.80;99.90;;;;;;4961478;28;20026;-70
2022/02/17 07:24:48;;;;;;;4.93;0.82;;;24.10;99.90;;;;;;4979166;28;20380;-72
2022/02/17 07:27:15;;;;;;;0.80;0.35;;;24.40;99.90;;;;;;4979580;28;20057;-72
2022/02/17 07:29:42;;;;;;;3.85;0.70;;;24.60;99.90;;;;;;4985511;28;20041;-72
2022/02/17 07:32:11;;;;;;;1.60;0.60;;;24.70;99.90;;;;;;4985938;28;20062;-74
2022/02/17 07:34:38;;;;;;;1.70;0.70;;;24.60;99.90;;;;;;4988464;28;20469;-73
2022/02/17 07:37:06;;;;;;;3.30;0.57;;;24.40;99.90;;;;;;4976348;28;20057;-72
2022/02/17 07:39:34;;;;;;;2.67;0.55;;;24.20;99.90;;;;;;4982385;28;20069;-71
2022/02/17 07:42:01;;;;;;;3.30;0.70;;;24.20;99.90;;;;;;4982254;28;20027;-72
2022/02/17 07:44:28;;;;;;;3.60;0.80;;;24.20;99.90;;;;;;4981825;28;20062;-72
2022/02/17 07:46:56;;;;;;;2.40;0.90;;;24.20;99.90;;;;;;4977913;28;20081;-71
2022/02/17 07:49:24;;;;;;;2.13;0.82;;;24.20;99.90;;;;;;4978252;28;20030;-75
2022/02/17 07:51:51;;;;;;;5.72;0.75;;;24.20;99.90;;;;;;4979060;28;20059;-73
2022/02/17 07:54:18;;;;;;;1.83;0.65;;;24.30;99.90;;;;;;4983812;28;20066;-70
2022/02/17 07:56:46;;;;;;;2.20;0.70;;;24.30;99.90;;;;;;4979379;28;20098;-71
2022/02/17 07:59:14;;;;;;;4.70;1.10;;;24.30;99.90;;;;;;4980072;28;20464;-73
2022/02/17 08:01:42;;;;;;;1.25;0.65;;;24.40;99.90;;;;;;4977339;28;20129;-73
2022/02/17 08:04:09;;;;;;;4.10;1.08;;;24.30;99.90;;;;;;4981606;28;20031;-73
2022/02/17 08:06:38;;;;;;;1.45;0.88;;;24.10;99.90;;;;;;4983696;28;20431;-74
2022/02/17 08:09:05;;;;;;;1.40;0.80;;;23.90;99.90;;;;;;4984022;28;20750;-74
2022/02/17 08:11:33;;;;;;;1.45;0.60;;;23.70;99.90;;;;;;4982226;28;20070;-74
2022/02/17 08:14:00;;;;;;;2.85;0.65;;;23.40;99.90;;;;;;4978523;28;20042;-73
2022/02/17 08:16:28;;;;;;;1.48;0.50;;;23.10;99.90;;;;;;4984200;28;20395;-76
2022/02/17 08:18:55;;;;;;;0.93;0.50;;;23.00;99.90;;;;;;4982549;28;20034;-73
2022/02/17 08:21:23;;;;;;;3.22;0.45;;;23.00;99.90;;;;;;4983362;28;20049;-74
2022/02/17 08:23:50;;;;;;;3.10;0.82;;;23.00;99.90;;;;;;4972201;28;20486;-73
2022/02/17 08:26:18;;;;;;;2.67;0.80;;;23.10;99.90;;;;;;4984119;28;20054;-73
2022/02/17 08:28:45;;;;;;;3.17;1.52;;;23.10;99.90;;;;;;4981244;28;20149;-74
2022/02/17 08:31:12;;;;;;;2.50;1.00;;;23.20;99.90;;;;;;4980249;28;20103;-72
2022/02/17 08:33:40;;;;;;;1.67;0.50;;;23.30;99.90;;;;;;4987311;28;20039;-73
2022/02/17 08:36:07;;;;;;;1.48;0.52;;;23.30;99.90;;;;;;4989269;28;20382;-73
2022/02/17 08:38:38;;;;;;;2.92;0.70;;;23.30;99.90;;;;;;4988517;28;20081;-73
2022/02/17 08:41:14;;;;;;;1.60;0.80;;;23.40;99.90;;;;;;4987878;28;20041;-73
2022/02/17 08:43:49;;;;;;;;;;;23.50;99.90;;;;;;5064045;27;20556;-73
2022/02/17 08:46:19;;;;;;;2.90;0.40;;;23.70;99.90;;;;;;5066483;28;19909;-73
2022/02/17 08:48:47;;;;;;;2.75;0.60;;;23.70;99.90;;;;;;5062668;28;20033;-72
2022/02/17 08:51:17;;;;;;;3.00;0.88;;;23.80;99.90;;;;;;5055202;28;20463;-73
2022/02/17 08:53:45;;;;;;;2.65;0.50;;;23.90;99.90;;;;;;5064316;28;20043;-72
2022/02/17 08:56:12;;;;;;;1.23;0.50;;;23.90;99.90;;;;;;5061661;28;20020;-74
2022/02/17 08:58:40;;;;;;;1.38;0.43;;;24.00;99.90;;;;;;5065456;28;20086;-74
2022/02/17 09:01:07;;;;;;;1.50;0.50;;;24.00;99.90;;;;;;5051374;28;20499;-72
2022/02/17 09:03:35;;;;;;;2.15;0.50;;;24.00;99.90;;;;;;5064320;28;20037;-73
2022/02/17 09:06:03;;;;;;;3.25;0.70;;;24.00;99.90;;;;;;5049258;28;20090;-72
2022/02/17 09:08:30;;;;;;;6.32;1.38;;;23.90;99.90;;;;;;5063984;28;20059;-73
2022/02/17 09:10:57;;;;;;;5.22;1.08;;;23.70;99.90;;;;;;5064122;28;20025;-72
2022/02/17 09:13:25;;;;;;;2.85;1.17;;;23.40;99.90;;;;;;5063014;28;20021;-74
2022/02/17 09:15:52;;;;;;;3.25;0.75;;;23.20;99.90;;;;;;5061376;28;20028;-72
2022/02/17 09:18:20;;;;;;;4.05;0.95;;;23.00;99.90;;;;;;5063501;28;20020;-73
2022/02/17 09:20:47;;;;;;;5.15;1.90;;;22.90;99.90;;;;;;5066829;28;20055;-74
2022/02/17 09:23:15;;;;;;;2.78;1.25;;;22.70;99.90;;;;;;5065017;28;20503;-73
2022/02/17 09:25:42;;;;;;;2.67;0.63;;;22.50;99.90;;;;;;5051180;28;20104;-74
2022/02/17 09:28:09;;;;;;;4.75;0.90;;;22.60;99.90;;;;;;5061207;28;20031;-73
2022/02/17 09:30:37;;;;;;;2.33;0.57;;;22.60;99.90;;;;;;5049748;28;20029;-73
2022/02/17 09:33:05;;;;;;;1.50;0.55;;;22.60;99.90;;;;;;5059471;28;20029;-75
2022/02/17 09:35:32;;;;;;;5.75;1.63;;;22.70;99.90;;;;;;5062332;28;20683;-75
2022/02/17 09:37:59;;;;;;;6.82;1.27;;;22.80;99.90;;;;;;5053523;28;20053;-73
2022/02/17 09:40:27;;;;;;;4.20;1.58;;;22.70;99.90;;;;;;5057479;28;20048;-73
2022/02/17 09:42:54;;;;;;;6.45;1.17;;;22.50;99.90;;;;;;5062592;28;20503;-73
2022/02/17 09:45:22;;;;;;;7.35;2.58;;;22.30;99.90;;;;;;5065012;28;20077;-73
2022/02/17 09:47:50;;;;;;;4.10;1.33;;;22.00;99.90;;;;;;5061435;28;20041;-73
2022/02/17 09:50:17;;;;;;;6.72;1.05;;;21.90;99.90;;;;;;5061301;28;20028;-73
2022/02/17 09:52:45;;;;;;;3.67;0.77;;;21.50;99.90;;;;;;5062618;28;20064;-73
2022/02/17 09:55:16;;;;;;;5.88;1.50;;;21.50;99.90;;;;;;5052681;28;20044;-73
2022/02/17 09:57:44;;;;;;;5.22;2.00;;;21.50;99.90;;;;;;5049276;28;20105;-72
2022/02/17 10:00:16;;;;;;;5.63;1.33;;;21.20;99.90;;;;;;5034450;28;20408;-76
2022/02/17 10:02:44;;;;;;;5.53;1.02;;;20.80;99.90;;;;;;5042017;28;20182;-73
2022/02/17 10:05:11;;;;;;;2.80;0.85;;;20.40;99.90;;;;;;5049418;28;20025;-74
2022/02/17 10:07:42;;;;;;;4.53;1.20;;;20.10;99.90;;;;;;5049676;28;20095;-74
2022/02/17 10:10:15;;;;;;;3.58;1.13;;;20.10;99.90;;;;;;5042424;28;20032;-73
2022/02/17 10:13:04;;;;;;;3.10;0.98;;;20.20;99.90;;;;;;5040669;28;20487;-73
2022/02/17 10:15:39;;;;;;;4.28;0.77;;;20.30;99.90;;;;;;5050751;28;20025;-73
2022/02/17 10:18:13;;;;;;;2.85;1.02;;;20.40;99.90;;;;;;5049641;28;20079;-73
2022/02/17 10:20:54;;;;;;;3.97;0.90;;;20.50;99.90;;;;;;5052728;28;20379;-73
2022/02/17 10:23:23;;;;;;;2.22;1.17;;;20.60;99.90;;;;;;5048147;28;20033;-74
2022/02/17 10:26:15;;;;;;;3.42;1.10;;;20.60;99.90;;;;;;5048090;28;20116;-74
2022/02/17 10:28:43;;;;;;;2.28;1.50;;;20.70;99.90;;;;;;5046984;28;20112;-75
2022/02/17 10:31:23;;;;;;;1.95;1.35;;;20.80;99.90;;;;;;5048905;28;20025;-73
2022/02/17 10:33:54;;;;;;;5.75;1.33;;;20.90;99.90;;;;;;5044732;28;20116;-75
2022/02/17 10:36:44;;;;;;;3.67;1.60;;;20.90;99.90;;;;;;5048905;28;20399;-74
2022/02/17 10:39:23;;;;;;;4.55;1.98;;;21.00;99.90;;;;;;5048144;28;20064;-74
2022/02/17 10:41:54;;;;;;;6.47;1.80;;;21.00;99.90;;;;;;5048152;28;20036;-77
2022/02/17 10:44:32;;;;;;;5.35;1.45;;;21.10;99.90;;;;;;5049289;28;20127;-80
2022/02/17 10:47:22;;;;;;;4.70;1.70;;;21.20;99.90;;;;;;5048678;28;20025;-78
2022/02/17 10:49:56;;;;;;;2.70;1.13;;;21.20;99.90;;;;;;5051139;28;20033;-76
2022/02/17 10:52:36;;;;;;;8.23;1.45;;;21.30;99.90;;;;;;5043233;28;20544;-78
2022/02/17 10:55:22;;;;;;;8.75;1.80;;;21.50;99.90;;;;;;5043840;28;20029;-76
2022/02/17 10:57:51;;;;;;;3.65;1.20;;;21.60;99.90;;;;;;5048214;28;20691;-77
2022/02/17 11:00:23;;;;;;;7.00;1.63;;;21.70;99.90;;;;;;5046472;28;20128;-78
2022/02/17 11:02:51;;;;;;;6.57;1.80;;;21.60;99.90;;;;;;5047745;28;20052;-78
2022/02/17 11:05:19;;;;;;;2.10;1.40;;;21.50;99.90;;;;;;5046303;28;20033;-78
2022/02/17 11:07:49;;;;;;;5.15;1.48;;;21.40;99.90;;;;;;5045758;28;20025;-77
2022/02/17 11:10:16;;;;;;;4.75;1.20;;;21.30;99.90;;;;;;5049296;28;20129;-78
2022/02/17 11:12:45;;;;;;;3.40;1.67;;;21.20;99.90;;;;;;5047983;28;20036;-80
2022/02/17 11:15:12;;;;;;;3.63;1.00;;;21.10;99.90;;;;;;5047954;28;20021;-78
2022/02/17 11:17:40;;;;;;;3.53;1.52;;;21.10;99.90;;;;;;5041601;28;20091;-78
2022/02/17 11:20:17;;;;;;;5.93;1.67;;;21.00;99.90;;;;;;5050818;28;20033;-78
2022/02/17 11:22:52;;;;;;;9.82;1.20;;;21.00;99.90;;;;;;5050659;28;20464;-79
2022/02/17 11:25:33;;;;;;;5.95;1.58;;;21.00;99.90;;;;;;5050981;28;20048;-77
2022/02/17 11:28:07;;;;;;;6.22;1.73;;;21.10;99.90;;;;;;5047592;28;20033;-80
2022/02/17 11:30:36;;;;;;;3.05;1.33;;;21.20;99.90;;;;;;5043980;28;20049;-79
2022/02/17 11:33:28;;;;;;;12.63;1.90;;;21.20;99.90;;;;;;5044205;28;20032;-78
2022/02/17 11:35:59;;;;;;;4.68;1.50;;;21.40;99.90;;;;;;5044663;28;20020;-77
2022/02/17 11:38:33;;;;;;;5.95;1.58;;;21.50;99.90;;;;;;5046574;28;20029;-78
2022/02/17 11:41:14;;;;;;;2.53;1.50;;;21.90;99.90;;;;;;5046456;28;20360;-77
2022/02/17 11:43:51;;;;;;;4.85;1.20;;;22.10;99.90;;;;;;5044532;28;20064;-77
2022/02/17 11:46:41;;;;;;;3.88;1.17;;;22.10;99.90;;;;;;5047530;28;20025;-76
2022/02/17 11:49:35;;;;;;;2.15;1.13;;;21.90;99.90;;;;;;5038631;28;20111;-76
2022/02/17 11:52:13;;;;;;;5.03;1.23;;;21.80;99.90;;;;;;5036076;28;20071;-76
2022/02/17 11:54:42;;;;;;;2.28;1.30;;;21.70;99.90;;;;;;5042943;28;20028;-78
2022/02/17 11:57:35;;;;;;;4.93;2.00;;;21.70;99.90;;;;;;5046216;28;20532;-78
2022/02/17 12:00:20;;;;;;;3.90;1.00;;;21.80;99.90;;;;;;5047931;28;20046;-77
2022/02/17 12:02:49;;;;;;;2.83;1.03;;;21.70;99.90;;;;;;5045291;28;20083;-77
2022/02/17 12:05:18;;;;;;;3.92;1.73;;;21.60;99.90;;;;;;5044722;28;20025;-77
2022/02/17 12:07:49;;;;;;;3.83;1.27;;;21.60;99.90;;;;;;5041107;28;20033;-78
2022/02/17 12:10:31;;;;;;;2.30;1.15;;;21.60;99.90;;;;;;5047639;28;20723;-78
2022/02/17 12:13:05;;;;;;;6.07;2.10;;;21.70;99.90;;;;;;5044437;28;20104;-78
2022/02/17 12:15:32;;;;;;;5.13;1.40;;;21.70;99.90;;;;;;5038699;28;20024;-77
2022/02/17 12:18:00;;;;;;;3.05;1.40;;;21.70;99.90;;;;;;5045494;28;20074;-77
2022/02/17 12:20:30;;;;;;;3.72;1.30;;;21.70;99.90;;;;;;5048501;28;20071;-79
2022/02/17 12:22:59;;;;;;;3.55;1.50;;;21.80;99.90;;;;;;5043211;28;20099;-76
2022/02/17 12:25:28;;;;;;;3.83;1.08;;;21.80;99.90;;;;;;5045212;28;20032;-76
2022/02/17 12:27:57;;;;;;;8.73;1.58;;;21.80;99.90;;;;;;5046407;28;20086;-76
2022/02/17 12:30:35;;;;;;;2.10;1.50;;;21.70;99.90;;;;;;5046151;28;20032;-77
2022/02/17 12:33:08;;;;;;;2.47;1.17;;;21.70;99.90;;;;;;5046613;28;20071;-76
2022/02/17 12:35:37;;;;;;;2.78;1.02;;;21.60;99.90;;;;;;5048907;28;20529;-76
2022/02/17 12:38:10;;;;;;;2.80;0.95;;;21.60;99.90;;;;;;5046664;28;20048;-76
2022/02/17 12:40:39;;;;;;;3.47;1.30;;;21.50;99.90;;;;;;5044435;28;20128;-76
2022/02/17 12:43:07;;;;;;;2.28;1.23;;;21.50;99.90;;;;;;5040599;28;20066;-77
2022/02/17 12:45:45;;;;;;;5.65;2.58;;;21.40;99.90;;;;;;5043452;28;20082;-76
2022/02/17 12:48:16;;;;;;;4.05;1.80;;;21.40;99.90;;;;;;5039002;28;20486;-76
2022/02/17 12:50:45;;;;;;;2.53;1.00;;;21.40;99.90;;;;;;5046756;28;20029;-77
2022/02/17 12:53:13;;;;;;;2.05;1.02;;;21.40;99.90;;;;;;5044348;28;20036;-77
2022/02/17 12:55:44;;;;;;;3.55;1.33;;;21.30;99.90;;;;;;5047233;28;20059;-75
2022/02/17 12:58:32;;;;;;;2.90;1.10;;;21.30;99.90;;;;;;5045551;28;20387;-75
2022/02/17 13:01:01;;;;;;;9.63;1.25;;;21.20;99.90;;;;;;5047939;28;20041;-76
2022/02/17 13:03:43;;;;;;;5.65;1.33;;;21.10;99.90;;;;;;5047667;28;20114;-76
2022/02/17 13:06:21;;;;;;;1.60;1.25;;;21.10;99.90;;;;;;5036218;28;20124;-77
2022/02/17 13:08:54;;;;;;;1.45;1.20;;;21.00;99.90;;;;;;5039992;28;20048;-76